sensor_id;sensor_type;location;lat;lon;timestamp;P1;durP1;ratioP1;P2;durP2;ratioP2
21386;SDS011;10854;45.922;6.716;2023-04-29T00:02:17;3.23;;;1.77;;
21386;SDS011;10854;45.922;6.716;2023-04-29T00:04:52;3.70;;;2.10;;
21386;SDS011;10854;45.922;6.716;2023-04-29T00:07:50;2.47;;;1.77;;
21386;SDS011;10854;45.922;6.716;2023-04-29T00:10:23;3.13;;;1.70;;
21386;SDS011;10854;45.922;6.716;2023-04-29T00:12:51;2.73;;;1.77;;
21386;SDS011;10854;45.922;6.716;2023-04-29T00:15:21;3.23;;;1.60;;
21386;SDS011;10854;45.922;6.716;2023-04-29T00:17:49;2.73;;;2.00;;
21386;SDS011;10854;45.922;6.716;2023-04-29T00:20:17;1.80;;;1.43;;
21386;SDS011;10854;45.922;6.716;2023-04-29T00:22:46;2.30;;;1.70;;
21386;SDS011;10854;45.922;6.716;2023-04-29T00:25:15;4.80;;;2.00;;
21386;SDS011;10854;45.922;6.716;2023-04-29T00:27:51;1.70;;;1.60;;
21386;SDS011;10854;45.922;6.716;2023-04-29T00:30:21;2.27;;;1.50;;
21386;SDS011;10854;45.922;6.716;2023-04-29T00:32:53;1.73;;;1.40;;
21386;SDS011;10854;45.922;6.716;2023-04-29T00:35:22;2.50;;;1.30;;
21386;SDS011;10854;45.922;6.716;2023-04-29T00:37:53;2.33;;;1.30;;
21386;SDS011;10854;45.922;6.716;2023-04-29T00:40:24;3.63;;;1.57;;
21386;SDS011;10854;45.922;6.716;2023-04-29T00:42:54;1.40;;;1.30;;
21386;SDS011;10854;45.922;6.716;2023-04-29T00:45:24;3.23;;;1.47;;
21386;SDS011;10854;45.922;6.716;2023-04-29T00:47:56;2.03;;;1.13;;
21386;SDS011;10854;45.922;6.716;2023-04-29T00:50:28;1.67;;;1.30;;
21386;SDS011;10854;45.922;6.716;2023-04-29T00:52:59;3.63;;;1.10;;
21386;SDS011;10854;45.922;6.716;2023-04-29T00:55:29;2.13;;;1.30;;
21386;SDS011;10854;45.922;6.716;2023-04-29T00:58:03;4.90;;;1.17;;
21386;SDS011;10854;45.922;6.716;2023-04-29T01:00:32;1.37;;;1.27;;
21386;SDS011;10854;45.922;6.716;2023-04-29T01:03:03;2.87;;;2.07;;
21386;SDS011;10854;45.922;6.716;2023-04-29T01:05:32;3.60;;;1.70;;
21386;SDS011;10854;45.922;6.716;2023-04-29T01:10:52;2.47;;;1.90;;
21386;SDS011;10854;45.922;6.716;2023-04-29T01:13:30;4.23;;;2.10;;
21386;SDS011;10854;45.922;6.716;2023-04-29T01:16:12;5.37;;;1.97;;
21386;SDS011;10854;45.922;6.716;2023-04-29T01:19:02;3.07;;;1.50;;
21386;SDS011;10854;45.922;6.716;2023-04-29T01:21:44;1.87;;;1.30;;
21386;SDS011;10854;45.922;6.716;2023-04-29T01:24:15;2.20;;;1.37;;
21386;SDS011;10854;45.922;6.716;2023-04-29T01:26:45;3.57;;;1.50;;
21386;SDS011;10854;45.922;6.716;2023-04-29T01:29:34;2.40;;;1.73;;
21386;SDS011;10854;45.922;6.716;2023-04-29T01:32:17;4.33;;;1.90;;
21386;SDS011;10854;45.922;6.716;2023-04-29T01:37:51;3.90;;;1.90;;
21386;SDS011;10854;45.922;6.716;2023-04-29T01:40:34;5.80;;;2.20;;
21386;SDS011;10854;45.922;6.716;2023-04-29T01:43:11;5.83;;;2.10;;
21386;SDS011;10854;45.922;6.716;2023-04-29T01:45:42;2.57;;;2.00;;
21386;SDS011;10854;45.922;6.716;2023-04-29T01:48:11;4.63;;;2.00;;
21386;SDS011;10854;45.922;6.716;2023-04-29T01:50:40;2.50;;;1.70;;
21386;SDS011;10854;45.922;6.716;2023-04-29T01:53:08;5.10;;;1.83;;
21386;SDS011;10854;45.922;6.716;2023-04-29T01:55:36;6.20;;;1.80;;
21386;SDS011;10854;45.922;6.716;2023-04-29T01:58:05;2.33;;;1.30;;
21386;SDS011;10854;45.922;6.716;2023-04-29T02:00:33;5.67;;;1.70;;
21386;SDS011;10854;45.922;6.716;2023-04-29T02:03:02;2.57;;;1.40;;
21386;SDS011;10854;45.922;6.716;2023-04-29T02:05:30;5.37;;;1.67;;
21386;SDS011;10854;45.922;6.716;2023-04-29T02:08:01;2.83;;;1.73;;
21386;SDS011;10854;45.922;6.716;2023-04-29T02:10:30;7.03;;;2.00;;
21386;SDS011;10854;45.922;6.716;2023-04-29T02:12:58;1.97;;;1.50;;
21386;SDS011;10854;45.922;6.716;2023-04-29T02:15:27;2.97;;;1.50;;
21386;SDS011;10854;45.922;6.716;2023-04-29T02:17:56;2.87;;;1.40;;
21386;SDS011;10854;45.922;6.716;2023-04-29T02:20:26;5.97;;;1.33;;
21386;SDS011;10854;45.922;6.716;2023-04-29T02:22:54;2.47;;;1.20;;
21386;SDS011;10854;45.922;6.716;2023-04-29T02:25:23;2.93;;;1.43;;
21386;SDS011;10854;45.922;6.716;2023-04-29T02:27:51;1.73;;;1.30;;
21386;SDS011;10854;45.922;6.716;2023-04-29T02:30:19;1.43;;;1.20;;
21386;SDS011;10854;45.922;6.716;2023-04-29T02:32:47;4.03;;;1.67;;
21386;SDS011;10854;45.922;6.716;2023-04-29T02:35:16;2.57;;;1.30;;
21386;SDS011;10854;45.922;6.716;2023-04-29T02:37:44;2.40;;;1.30;;
21386;SDS011;10854;45.922;6.716;2023-04-29T02:40:13;2.97;;;1.30;;
21386;SDS011;10854;45.922;6.716;2023-04-29T02:42:41;2.03;;;1.20;;
21386;SDS011;10854;45.922;6.716;2023-04-29T02:45:10;3.50;;;1.10;;
21386;SDS011;10854;45.922;6.716;2023-04-29T02:47:39;3.47;;;1.50;;
21386;SDS011;10854;45.922;6.716;2023-04-29T02:50:08;2.77;;;1.30;;
21386;SDS011;10854;45.922;6.716;2023-04-29T02:52:37;2.63;;;1.47;;
21386;SDS011;10854;45.922;6.716;2023-04-29T02:55:08;2.70;;;1.40;;
21386;SDS011;10854;45.922;6.716;2023-04-29T02:57:37;2.90;;;1.63;;
21386;SDS011;10854;45.922;6.716;2023-04-29T03:00:09;4.60;;;1.63;;
21386;SDS011;10854;45.922;6.716;2023-04-29T03:02:40;4.20;;;1.50;;
21386;SDS011;10854;45.922;6.716;2023-04-29T03:05:08;3.20;;;1.80;;
21386;SDS011;10854;45.922;6.716;2023-04-29T03:07:37;2.80;;;1.70;;
21386;SDS011;10854;45.922;6.716;2023-04-29T03:10:06;3.93;;;1.80;;
21386;SDS011;10854;45.922;6.716;2023-04-29T03:12:36;3.10;;;2.00;;
21386;SDS011;10854;45.922;6.716;2023-04-29T03:15:06;6.67;;;2.37;;
21386;SDS011;10854;45.922;6.716;2023-04-29T03:17:36;4.90;;;2.03;;
21386;SDS011;10854;45.922;6.716;2023-04-29T03:20:06;4.57;;;2.23;;
21386;SDS011;10854;45.922;6.716;2023-04-29T03:22:38;2.47;;;2.00;;
21386;SDS011;10854;45.922;6.716;2023-04-29T03:25:07;4.27;;;2.27;;
21386;SDS011;10854;45.922;6.716;2023-04-29T03:27:38;5.37;;;2.27;;
21386;SDS011;10854;45.922;6.716;2023-04-29T03:30:06;3.77;;;2.10;;
21386;SDS011;10854;45.922;6.716;2023-04-29T03:32:36;5.90;;;2.13;;
21386;SDS011;10854;45.922;6.716;2023-04-29T03:35:06;2.17;;;1.90;;
21386;SDS011;10854;45.922;6.716;2023-04-29T03:37:34;3.77;;;2.33;;
21386;SDS011;10854;45.922;6.716;2023-04-29T03:40:03;5.13;;;2.43;;
21386;SDS011;10854;45.922;6.716;2023-04-29T03:42:32;3.70;;;2.17;;
21386;SDS011;10854;45.922;6.716;2023-04-29T03:45:00;4.33;;;2.40;;
21386;SDS011;10854;45.922;6.716;2023-04-29T03:47:29;5.10;;;2.23;;
21386;SDS011;10854;45.922;6.716;2023-04-29T03:49:57;2.67;;;2.20;;
21386;SDS011;10854;45.922;6.716;2023-04-29T03:52:27;8.40;;;2.33;;
21386;SDS011;10854;45.922;6.716;2023-04-29T03:54:59;5.27;;;2.20;;
21386;SDS011;10854;45.922;6.716;2023-04-29T03:57:27;3.37;;;2.10;;
21386;SDS011;10854;45.922;6.716;2023-04-29T03:59:56;5.07;;;2.77;;
21386;SDS011;10854;45.922;6.716;2023-04-29T04:02:24;5.50;;;2.53;;
21386;SDS011;10854;45.922;6.716;2023-04-29T04:04:53;6.10;;;2.47;;
21386;SDS011;10854;45.922;6.716;2023-04-29T04:07:22;4.53;;;2.33;;
21386;SDS011;10854;45.922;6.716;2023-04-29T04:09:50;7.37;;;2.60;;
21386;SDS011;10854;45.922;6.716;2023-04-29T04:12:19;8.07;;;2.10;;
21386;SDS011;10854;45.922;6.716;2023-04-29T04:14:47;6.70;;;2.30;;
21386;SDS011;10854;45.922;6.716;2023-04-29T04:17:16;5.40;;;2.00;;
21386;SDS011;10854;45.922;6.716;2023-04-29T04:19:44;3.30;;;1.43;;
21386;SDS011;10854;45.922;6.716;2023-04-29T04:22:14;2.67;;;1.90;;
21386;SDS011;10854;45.922;6.716;2023-04-29T04:24:43;5.73;;;2.37;;
21386;SDS011;10854;45.922;6.716;2023-04-29T04:27:12;6.10;;;2.73;;
21386;SDS011;10854;45.922;6.716;2023-04-29T04:29:40;4.00;;;3.13;;
21386;SDS011;10854;45.922;6.716;2023-04-29T04:32:10;5.10;;;2.77;;
21386;SDS011;10854;45.922;6.716;2023-04-29T04:34:38;10.43;;;3.10;;
21386;SDS011;10854;45.922;6.716;2023-04-29T04:37:06;5.90;;;2.93;;
21386;SDS011;10854;45.922;6.716;2023-04-29T04:39:35;6.37;;;3.17;;
21386;SDS011;10854;45.922;6.716;2023-04-29T04:42:03;5.50;;;3.20;;
21386;SDS011;10854;45.922;6.716;2023-04-29T04:44:32;5.03;;;3.03;;
21386;SDS011;10854;45.922;6.716;2023-04-29T04:47:00;4.43;;;2.83;;
21386;SDS011;10854;45.922;6.716;2023-04-29T04:49:29;3.03;;;2.60;;
21386;SDS011;10854;45.922;6.716;2023-04-29T04:51:58;5.97;;;3.17;;
21386;SDS011;10854;45.922;6.716;2023-04-29T04:54:28;8.57;;;3.27;;
21386;SDS011;10854;45.922;6.716;2023-04-29T04:56:59;7.17;;;4.23;;
21386;SDS011;10854;45.922;6.716;2023-04-29T04:59:32;7.63;;;3.83;;
21386;SDS011;10854;45.922;6.716;2023-04-29T05:02:01;5.03;;;3.87;;
21386;SDS011;10854;45.922;6.716;2023-04-29T05:04:30;7.87;;;4.80;;
21386;SDS011;10854;45.922;6.716;2023-04-29T05:06:58;7.03;;;3.70;;
21386;SDS011;10854;45.922;6.716;2023-04-29T05:09:27;7.53;;;3.50;;
21386;SDS011;10854;45.922;6.716;2023-04-29T05:11:55;7.90;;;3.83;;
21386;SDS011;10854;45.922;6.716;2023-04-29T05:14:25;6.27;;;3.47;;
21386;SDS011;10854;45.922;6.716;2023-04-29T05:16:57;6.83;;;3.60;;
21386;SDS011;10854;45.922;6.716;2023-04-29T05:19:27;5.17;;;3.60;;
21386;SDS011;10854;45.922;6.716;2023-04-29T05:21:55;9.70;;;4.10;;
21386;SDS011;10854;45.922;6.716;2023-04-29T05:24:24;5.70;;;3.17;;
21386;SDS011;10854;45.922;6.716;2023-04-29T05:26:54;6.00;;;4.10;;
21386;SDS011;10854;45.922;6.716;2023-04-29T05:29:23;5.03;;;3.70;;
21386;SDS011;10854;45.922;6.716;2023-04-29T05:31:56;4.63;;;3.07;;
21386;SDS011;10854;45.922;6.716;2023-04-29T05:34:26;6.27;;;3.50;;
21386;SDS011;10854;45.922;6.716;2023-04-29T05:36:54;5.73;;;3.20;;
21386;SDS011;10854;45.922;6.716;2023-04-29T05:39:25;8.30;;;3.50;;
21386;SDS011;10854;45.922;6.716;2023-04-29T05:41:54;7.47;;;3.57;;
21386;SDS011;10854;45.922;6.716;2023-04-29T05:44:23;6.23;;;3.20;;
21386;SDS011;10854;45.922;6.716;2023-04-29T05:46:52;5.50;;;3.43;;
21386;SDS011;10854;45.922;6.716;2023-04-29T05:49:21;9.87;;;3.93;;
21386;SDS011;10854;45.922;6.716;2023-04-29T05:51:49;6.77;;;3.50;;
21386;SDS011;10854;45.922;6.716;2023-04-29T05:54:18;7.13;;;3.20;;
21386;SDS011;10854;45.922;6.716;2023-04-29T05:56:46;7.83;;;7.03;;
21386;SDS011;10854;45.922;6.716;2023-04-29T05:59:15;4.23;;;3.40;;
21386;SDS011;10854;45.922;6.716;2023-04-29T06:01:43;4.70;;;3.97;;
21386;SDS011;10854;45.922;6.716;2023-04-29T06:04:12;4.43;;;3.60;;
21386;SDS011;10854;45.922;6.716;2023-04-29T06:06:41;5.33;;;3.63;;
21386;SDS011;10854;45.922;6.716;2023-04-29T06:09:10;6.67;;;3.97;;
21386;SDS011;10854;45.922;6.716;2023-04-29T06:11:42;4.80;;;3.33;;
21386;SDS011;10854;45.922;6.716;2023-04-29T06:14:11;4.87;;;2.90;;
21386;SDS011;10854;45.922;6.716;2023-04-29T06:16:40;2.30;;;2.10;;
21386;SDS011;10854;45.922;6.716;2023-04-29T06:19:09;4.67;;;2.47;;
21386;SDS011;10854;45.922;6.716;2023-04-29T06:21:38;4.73;;;2.60;;
21386;SDS011;10854;45.922;6.716;2023-04-29T06:24:06;3.10;;;2.70;;
21386;SDS011;10854;45.922;6.716;2023-04-29T06:26:34;3.90;;;2.27;;
21386;SDS011;10854;45.922;6.716;2023-04-29T06:29:03;4.73;;;2.23;;
21386;SDS011;10854;45.922;6.716;2023-04-29T06:31:32;5.00;;;2.40;;
21386;SDS011;10854;45.922;6.716;2023-04-29T06:34:00;2.90;;;2.17;;
21386;SDS011;10854;45.922;6.716;2023-04-29T06:36:29;4.43;;;2.33;;
21386;SDS011;10854;45.922;6.716;2023-04-29T06:38:58;3.67;;;2.30;;
21386;SDS011;10854;45.922;6.716;2023-04-29T06:41:26;3.90;;;2.50;;
21386;SDS011;10854;45.922;6.716;2023-04-29T06:43:55;5.53;;;2.20;;
21386;SDS011;10854;45.922;6.716;2023-04-29T06:46:24;3.70;;;2.37;;
21386;SDS011;10854;45.922;6.716;2023-04-29T06:48:54;3.50;;;2.10;;
21386;SDS011;10854;45.922;6.716;2023-04-29T06:51:22;8.57;;;2.43;;
21386;SDS011;10854;45.922;6.716;2023-04-29T06:53:51;4.13;;;2.13;;
21386;SDS011;10854;45.922;6.716;2023-04-29T06:56:20;6.67;;;2.67;;
21386;SDS011;10854;45.922;6.716;2023-04-29T06:58:48;8.00;;;2.50;;
21386;SDS011;10854;45.922;6.716;2023-04-29T07:01:17;4.10;;;2.70;;
21386;SDS011;10854;45.922;6.716;2023-04-29T07:03:45;3.53;;;1.90;;
21386;SDS011;10854;45.922;6.716;2023-04-29T07:06:14;1.90;;;1.50;;
21386;SDS011;10854;45.922;6.716;2023-04-29T07:08:43;2.07;;;1.50;;
21386;SDS011;10854;45.922;6.716;2023-04-29T07:11:11;2.43;;;1.60;;
21386;SDS011;10854;45.922;6.716;2023-04-29T07:13:40;2.77;;;1.87;;
21386;SDS011;10854;45.922;6.716;2023-04-29T07:16:15;2.70;;;1.87;;
21386;SDS011;10854;45.922;6.716;2023-04-29T07:18:49;3.43;;;2.60;;
21386;SDS011;10854;45.922;6.716;2023-04-29T07:21:18;3.87;;;2.80;;
21386;SDS011;10854;45.922;6.716;2023-04-29T07:23:50;3.47;;;2.67;;
21386;SDS011;10854;45.922;6.716;2023-04-29T07:26:22;3.73;;;2.00;;
21386;SDS011;10854;45.922;6.716;2023-04-29T07:28:55;3.57;;;2.00;;
21386;SDS011;10854;45.922;6.716;2023-04-29T07:31:25;3.23;;;2.00;;
21386;SDS011;10854;45.922;6.716;2023-04-29T07:34:08;2.97;;;2.20;;
21386;SDS011;10854;45.922;6.716;2023-04-29T07:36:59;2.17;;;1.83;;
21386;SDS011;10854;45.922;6.716;2023-04-29T07:39:31;3.23;;;2.07;;
21386;SDS011;10854;45.922;6.716;2023-04-29T07:42:02;4.03;;;1.60;;
21386;SDS011;10854;45.922;6.716;2023-04-29T07:44:42;3.60;;;1.83;;
21386;SDS011;10854;45.922;6.716;2023-04-29T07:47:17;4.30;;;1.80;;
21386;SDS011;10854;45.922;6.716;2023-04-29T07:49:56;4.50;;;1.90;;
21386;SDS011;10854;45.922;6.716;2023-04-29T07:52:27;3.83;;;1.70;;
21386;SDS011;10854;45.922;6.716;2023-04-29T07:55:17;4.83;;;1.70;;
21386;SDS011;10854;45.922;6.716;2023-04-29T07:57:51;2.47;;;1.80;;
21386;SDS011;10854;45.922;6.716;2023-04-29T08:00:22;2.80;;;1.37;;
21386;SDS011;10854;45.922;6.716;2023-04-29T08:02:54;5.00;;;1.73;;
21386;SDS011;10854;45.922;6.716;2023-04-29T08:05:24;2.80;;;1.50;;
21386;SDS011;10854;45.922;6.716;2023-04-29T08:08:18;2.20;;;1.57;;
21386;SDS011;10854;45.922;6.716;2023-04-29T08:10:47;4.30;;;1.40;;
21386;SDS011;10854;45.922;6.716;2023-04-29T08:13:58;4.37;;;1.60;;
21386;SDS011;10854;45.922;6.716;2023-04-29T08:16:35;4.00;;;1.43;;
21386;SDS011;10854;45.922;6.716;2023-04-29T08:19:03;2.47;;;1.30;;
21386;SDS011;10854;45.922;6.716;2023-04-29T08:21:43;2.43;;;1.50;;
21386;SDS011;10854;45.922;6.716;2023-04-29T08:24:12;3.23;;;1.57;;
21386;SDS011;10854;45.922;6.716;2023-04-29T08:26:42;2.83;;;1.50;;
21386;SDS011;10854;45.922;6.716;2023-04-29T08:29:16;2.83;;;1.40;;
21386;SDS011;10854;45.922;6.716;2023-04-29T08:31:47;3.67;;;2.17;;
21386;SDS011;10854;45.922;6.716;2023-04-29T08:34:19;3.77;;;2.03;;
21386;SDS011;10854;45.922;6.716;2023-04-29T08:36:55;2.87;;;1.63;;
21386;SDS011;10854;45.922;6.716;2023-04-29T08:39:28;4.77;;;1.63;;
21386;SDS011;10854;45.922;6.716;2023-04-29T08:41:59;4.03;;;1.60;;
21386;SDS011;10854;45.922;6.716;2023-04-29T08:44:51;3.27;;;1.90;;
21386;SDS011;10854;45.922;6.716;2023-04-29T08:54:14;2.57;;;1.20;;
21386;SDS011;10854;45.922;6.716;2023-04-29T08:56:49;2.70;;;1.40;;
21386;SDS011;10854;45.922;6.716;2023-04-29T08:59:39;1.50;;;1.20;;
21386;SDS011;10854;45.922;6.716;2023-04-29T09:02:12;1.70;;;1.10;;
21386;SDS011;10854;45.922;6.716;2023-04-29T09:05:21;2.20;;;1.13;;
21386;SDS011;10854;45.922;6.716;2023-04-29T09:08:11;2.43;;;1.27;;
21386;SDS011;10854;45.922;6.716;2023-04-29T09:10:47;2.33;;;1.20;;
21386;SDS011;10854;45.922;6.716;2023-04-29T09:13:24;2.40;;;1.10;;
21386;SDS011;10854;45.922;6.716;2023-04-29T09:15:54;1.27;;;1.07;;
21386;SDS011;10854;45.922;6.716;2023-04-29T09:21:20;1.77;;;1.10;;
21386;SDS011;10854;45.922;6.716;2023-04-29T09:24:07;2.53;;;1.10;;
21386;SDS011;10854;45.922;6.716;2023-04-29T09:26:40;2.53;;;1.00;;
21386;SDS011;10854;45.922;6.716;2023-04-29T09:29:11;1.73;;;1.00;;
21386;SDS011;10854;45.922;6.716;2023-04-29T09:31:43;3.20;;;1.17;;
21386;SDS011;10854;45.922;6.716;2023-04-29T09:34:13;1.93;;;1.20;;
21386;SDS011;10854;45.922;6.716;2023-04-29T09:39:14;1.93;;;1.00;;
21386;SDS011;10854;45.922;6.716;2023-04-29T09:44:25;1.33;;;0.97;;
21386;SDS011;10854;45.922;6.716;2023-04-29T09:47:06;1.30;;;0.97;;
21386;SDS011;10854;45.922;6.716;2023-04-29T09:49:36;1.17;;;0.83;;
21386;SDS011;10854;45.922;6.716;2023-04-29T09:52:25;1.17;;;1.07;;
21386;SDS011;10854;45.922;6.716;2023-04-29T09:55:10;1.27;;;1.10;;
21386;SDS011;10854;45.922;6.716;2023-04-29T09:57:46;1.73;;;0.97;;
21386;SDS011;10854;45.922;6.716;2023-04-29T10:00:17;1.30;;;1.07;;
21386;SDS011;10854;45.922;6.716;2023-04-29T10:02:48;3.03;;;1.20;;
21386;SDS011;10854;45.922;6.716;2023-04-29T10:05:18;2.07;;;1.50;;
21386;SDS011;10854;45.922;6.716;2023-04-29T10:07:49;2.40;;;1.53;;
21386;SDS011;10854;45.922;6.716;2023-04-29T10:10:18;4.30;;;1.80;;
21386;SDS011;10854;45.922;6.716;2023-04-29T10:12:51;3.07;;;2.07;;
21386;SDS011;10854;45.922;6.716;2023-04-29T10:15:42;2.63;;;2.13;;
21386;SDS011;10854;45.922;6.716;2023-04-29T10:18:22;2.07;;;1.50;;
21386;SDS011;10854;45.922;6.716;2023-04-29T10:21:07;3.63;;;1.80;;
21386;SDS011;10854;45.922;6.716;2023-04-29T10:23:39;2.70;;;1.50;;
21386;SDS011;10854;45.922;6.716;2023-04-29T10:26:20;2.03;;;1.50;;
21386;SDS011;10854;45.922;6.716;2023-04-29T10:28:53;1.60;;;1.20;;
21386;SDS011;10854;45.922;6.716;2023-04-29T10:31:27;1.10;;;1.00;;
21386;SDS011;10854;45.922;6.716;2023-04-29T10:34:00;1.43;;;0.90;;
21386;SDS011;10854;45.922;6.716;2023-04-29T10:36:28;0.90;;;0.90;;
21386;SDS011;10854;45.922;6.716;2023-04-29T10:38:58;1.10;;;1.00;;
21386;SDS011;10854;45.922;6.716;2023-04-29T10:41:44;2.10;;;0.90;;
21386;SDS011;10854;45.922;6.716;2023-04-29T10:44:13;1.47;;;1.23;;
21386;SDS011;10854;45.922;6.716;2023-04-29T10:46:44;1.63;;;1.30;;
21386;SDS011;10854;45.922;6.716;2023-04-29T10:49:13;1.87;;;1.20;;
21386;SDS011;10854;45.922;6.716;2023-04-29T10:51:43;1.40;;;1.10;;
21386;SDS011;10854;45.922;6.716;2023-04-29T10:54:15;1.37;;;1.07;;
21386;SDS011;10854;45.922;6.716;2023-04-29T10:56:48;2.50;;;1.10;;
21386;SDS011;10854;45.922;6.716;2023-04-29T11:01:56;1.97;;;1.07;;
21386;SDS011;10854;45.922;6.716;2023-04-29T11:04:26;1.70;;;1.17;;
21386;SDS011;10854;45.922;6.716;2023-04-29T11:06:55;1.70;;;1.00;;
21386;SDS011;10854;45.922;6.716;2023-04-29T11:09:26;1.97;;;1.27;;
21386;SDS011;10854;45.922;6.716;2023-04-29T11:12:02;0.90;;;0.90;;
21386;SDS011;10854;45.922;6.716;2023-04-29T11:14:36;1.00;;;0.90;;
21386;SDS011;10854;45.922;6.716;2023-04-29T11:17:09;1.10;;;1.00;;
21386;SDS011;10854;45.922;6.716;2023-04-29T11:19:45;2.47;;;1.20;;
21386;SDS011;10854;45.922;6.716;2023-04-29T11:24:58;1.37;;;1.27;;
21386;SDS011;10854;45.922;6.716;2023-04-29T11:27:34;1.37;;;1.27;;
21386;SDS011;10854;45.922;6.716;2023-04-29T11:30:04;2.37;;;1.10;;
21386;SDS011;10854;45.922;6.716;2023-04-29T11:32:36;1.10;;;1.00;;
21386;SDS011;10854;45.922;6.716;2023-04-29T11:35:13;1.90;;;0.93;;
21386;SDS011;10854;45.922;6.716;2023-04-29T11:37:44;2.17;;;1.40;;
21386;SDS011;10854;45.922;6.716;2023-04-29T11:40:13;1.60;;;1.30;;
21386;SDS011;10854;45.922;6.716;2023-04-29T11:42:45;2.10;;;1.40;;
21386;SDS011;10854;45.922;6.716;2023-04-29T11:45:17;3.17;;;1.10;;
21386;SDS011;10854;45.922;6.716;2023-04-29T11:47:49;1.40;;;1.30;;
21386;SDS011;10854;45.922;6.716;2023-04-29T11:50:18;1.87;;;1.43;;
21386;SDS011;10854;45.922;6.716;2023-04-29T11:52:49;1.50;;;1.37;;
21386;SDS011;10854;45.922;6.716;2023-04-29T11:55:18;2.13;;;1.30;;
21386;SDS011;10854;45.922;6.716;2023-04-29T11:57:47;1.73;;;1.20;;
21386;SDS011;10854;45.922;6.716;2023-04-29T12:00:18;1.20;;;1.10;;
21386;SDS011;10854;45.922;6.716;2023-04-29T12:02:46;3.47;;;1.70;;
21386;SDS011;10854;45.922;6.716;2023-04-29T12:05:15;7.60;;;5.57;;
21386;SDS011;10854;45.922;6.716;2023-04-29T12:07:45;2.37;;;1.70;;
21386;SDS011;10854;45.922;6.716;2023-04-29T12:10:17;1.60;;;1.10;;
21386;SDS011;10854;45.922;6.716;2023-04-29T12:12:48;2.40;;;1.30;;
21386;SDS011;10854;45.922;6.716;2023-04-29T12:15:18;2.37;;;1.10;;
21386;SDS011;10854;45.922;6.716;2023-04-29T12:17:47;1.57;;;1.20;;
21386;SDS011;10854;45.922;6.716;2023-04-29T12:20:15;1.93;;;1.40;;
21386;SDS011;10854;45.922;6.716;2023-04-29T12:22:55;2.00;;;1.33;;
21386;SDS011;10854;45.922;6.716;2023-04-29T12:25:26;1.87;;;1.47;;
21386;SDS011;10854;45.922;6.716;2023-04-29T12:27:58;1.07;;;0.97;;
21386;SDS011;10854;45.922;6.716;2023-04-29T12:30:28;2.73;;;1.00;;
21386;SDS011;10854;45.922;6.716;2023-04-29T12:32:58;2.40;;;1.20;;
21386;SDS011;10854;45.922;6.716;2023-04-29T12:35:26;3.40;;;1.40;;
21386;SDS011;10854;45.922;6.716;2023-04-29T12:37:59;2.17;;;1.27;;
21386;SDS011;10854;45.922;6.716;2023-04-29T12:40:30;1.80;;;0.90;;
21386;SDS011;10854;45.922;6.716;2023-04-29T12:43:06;1.73;;;1.10;;
21386;SDS011;10854;45.922;6.716;2023-04-29T12:45:35;2.43;;;1.40;;
21386;SDS011;10854;45.922;6.716;2023-04-29T12:48:09;2.63;;;1.33;;
21386;SDS011;10854;45.922;6.716;2023-04-29T12:50:48;2.03;;;1.10;;
21386;SDS011;10854;45.922;6.716;2023-04-29T12:53:18;3.07;;;1.20;;
21386;SDS011;10854;45.922;6.716;2023-04-29T12:55:47;1.67;;;1.07;;
21386;SDS011;10854;45.922;6.716;2023-04-29T12:58:15;1.50;;;1.20;;
21386;SDS011;10854;45.922;6.716;2023-04-29T13:00:45;1.57;;;1.20;;
21386;SDS011;10854;45.922;6.716;2023-04-29T13:03:14;2.53;;;1.20;;
21386;SDS011;10854;45.922;6.716;2023-04-29T13:05:45;3.67;;;1.27;;
21386;SDS011;10854;45.922;6.716;2023-04-29T13:08:15;1.33;;;1.10;;
21386;SDS011;10854;45.922;6.716;2023-04-29T13:10:43;1.10;;;1.00;;
21386;SDS011;10854;45.922;6.716;2023-04-29T13:13:13;1.97;;;1.10;;
21386;SDS011;10854;45.922;6.716;2023-04-29T13:15:41;1.50;;;1.10;;
21386;SDS011;10854;45.922;6.716;2023-04-29T13:18:11;2.40;;;1.30;;
21386;SDS011;10854;45.922;6.716;2023-04-29T13:20:39;1.53;;;1.00;;
21386;SDS011;10854;45.922;6.716;2023-04-29T13:23:08;1.10;;;1.00;;
21386;SDS011;10854;45.922;6.716;2023-04-29T13:25:38;2.50;;;1.00;;
21386;SDS011;10854;45.922;6.716;2023-04-29T13:28:06;1.30;;;1.10;;
21386;SDS011;10854;45.922;6.716;2023-04-29T13:30:34;1.33;;;1.00;;
21386;SDS011;10854;45.922;6.716;2023-04-29T13:33:03;1.43;;;1.03;;
21386;SDS011;10854;45.922;6.716;2023-04-29T13:35:35;2.73;;;1.17;;
21386;SDS011;10854;45.922;6.716;2023-04-29T13:38:05;1.90;;;1.20;;
21386;SDS011;10854;45.922;6.716;2023-04-29T13:40:34;2.27;;;1.07;;
21386;SDS011;10854;45.922;6.716;2023-04-29T13:43:04;1.67;;;1.17;;
21386;SDS011;10854;45.922;6.716;2023-04-29T13:45:35;2.57;;;0.90;;
21386;SDS011;10854;45.922;6.716;2023-04-29T13:48:06;2.00;;;1.13;;
21386;SDS011;10854;45.922;6.716;2023-04-29T13:50:46;2.70;;;1.10;;
21386;SDS011;10854;45.922;6.716;2023-04-29T13:53:36;1.17;;;1.03;;
21386;SDS011;10854;45.922;6.716;2023-04-29T13:56:25;2.03;;;1.00;;
21386;SDS011;10854;45.922;6.716;2023-04-29T13:59:14;1.37;;;1.10;;
21386;SDS011;10854;45.922;6.716;2023-04-29T14:01:46;1.90;;;1.20;;
21386;SDS011;10854;45.922;6.716;2023-04-29T14:04:19;2.33;;;1.10;;
21386;SDS011;10854;45.922;6.716;2023-04-29T14:06:47;1.97;;;1.20;;
21386;SDS011;10854;45.922;6.716;2023-04-29T14:09:16;3.50;;;1.53;;
21386;SDS011;10854;45.922;6.716;2023-04-29T14:11:46;2.37;;;1.20;;
21386;SDS011;10854;45.922;6.716;2023-04-29T14:14:18;1.20;;;1.10;;
21386;SDS011;10854;45.922;6.716;2023-04-29T14:16:47;2.37;;;1.00;;
21386;SDS011;10854;45.922;6.716;2023-04-29T14:19:15;1.77;;;1.10;;
21386;SDS011;10854;45.922;6.716;2023-04-29T14:21:44;3.53;;;1.20;;
21386;SDS011;10854;45.922;6.716;2023-04-29T14:24:15;2.27;;;1.30;;
21386;SDS011;10854;45.922;6.716;2023-04-29T14:26:44;1.40;;;1.00;;
21386;SDS011;10854;45.922;6.716;2023-04-29T14:29:16;1.13;;;1.03;;
21386;SDS011;10854;45.922;6.716;2023-04-29T14:31:45;1.43;;;1.13;;
21386;SDS011;10854;45.922;6.716;2023-04-29T14:34:18;2.03;;;1.40;;
21386;SDS011;10854;45.922;6.716;2023-04-29T14:36:48;2.40;;;1.47;;
21386;SDS011;10854;45.922;6.716;2023-04-29T14:39:18;3.30;;;1.40;;
21386;SDS011;10854;45.922;6.716;2023-04-29T14:41:46;2.77;;;1.17;;
21386;SDS011;10854;45.922;6.716;2023-04-29T14:44:15;2.33;;;1.50;;
21386;SDS011;10854;45.922;6.716;2023-04-29T14:46:46;2.20;;;1.13;;
21386;SDS011;10854;45.922;6.716;2023-04-29T14:49:17;1.83;;;1.20;;
21386;SDS011;10854;45.922;6.716;2023-04-29T14:51:50;2.20;;;1.30;;
21386;SDS011;10854;45.922;6.716;2023-04-29T14:54:23;2.40;;;2.20;;
21386;SDS011;10854;45.922;6.716;2023-04-29T14:56:54;1.70;;;1.47;;
21386;SDS011;10854;45.922;6.716;2023-04-29T14:59:23;1.97;;;1.50;;
21386;SDS011;10854;45.922;6.716;2023-04-29T15:01:51;2.20;;;1.50;;
21386;SDS011;10854;45.922;6.716;2023-04-29T15:04:20;1.10;;;1.00;;
21386;SDS011;10854;45.922;6.716;2023-04-29T15:06:51;2.60;;;1.10;;
21386;SDS011;10854;45.922;6.716;2023-04-29T15:09:19;1.13;;;1.03;;
21386;SDS011;10854;45.922;6.716;2023-04-29T15:11:51;1.30;;;1.20;;
21386;SDS011;10854;45.922;6.716;2023-04-29T15:14:21;2.27;;;1.37;;
21386;SDS011;10854;45.922;6.716;2023-04-29T15:16:51;1.63;;;1.20;;
21386;SDS011;10854;45.922;6.716;2023-04-29T15:19:20;4.10;;;1.30;;
21386;SDS011;10854;45.922;6.716;2023-04-29T15:21:51;2.10;;;1.40;;
21386;SDS011;10854;45.922;6.716;2023-04-29T15:24:19;2.00;;;1.10;;
21386;SDS011;10854;45.922;6.716;2023-04-29T15:26:49;1.83;;;1.37;;
21386;SDS011;10854;45.922;6.716;2023-04-29T15:29:21;2.73;;;1.33;;
21386;SDS011;10854;45.922;6.716;2023-04-29T15:31:49;3.00;;;1.37;;
21386;SDS011;10854;45.922;6.716;2023-04-29T15:34:19;2.13;;;1.10;;
21386;SDS011;10854;45.922;6.716;2023-04-29T15:36:49;3.40;;;1.13;;
21386;SDS011;10854;45.922;6.716;2023-04-29T15:39:21;2.63;;;1.20;;
21386;SDS011;10854;45.922;6.716;2023-04-29T15:41:50;2.60;;;1.40;;